Terminal Aerodrome Forecast
Issued by NWS

Home | Current Version | Previous Version | Text Only | Print | Product List | Glossary On
Versions: 1 2 3 4 5 6 7 8 9 10 11 12 13 14 15 16 17 18 19 20
000
FTUS43 KDTX 212320
TAFYIP
TAF
KYIP 212320Z 2200/2224 16006KT P6SM SCT150 BKN250
     FM220700 14004KT 3SM BR SCT250
     FM221000 VRB03KT 1SM BR SCT002 SCT050
     FM221400 17006KT P6SM FEW050 SCT250=

USA.gov is the U.S. government's official web portal to all federal, state and local government web resources and services.